createdAt,value
2019-04-11T00:01:10.106Z,75.79
2019-04-11T00:03:41.798Z,75.55
2019-04-11T00:06:13.314Z,75.12
2019-04-11T00:08:45.890Z,75.18
2019-04-11T00:11:17.801Z,75.36
2019-04-11T00:13:49.550Z,75.02
2019-04-11T00:16:21.428Z,74.85
2019-04-11T00:18:54.727Z,75.27
2019-04-11T00:21:26.277Z,75.26
2019-04-11T00:23:58.608Z,75.39
2019-04-11T00:26:32.598Z,75.43
2019-04-11T00:29:04.164Z,75.10
2019-04-11T00:31:36.809Z,75.21
2019-04-11T00:34:08.915Z,75.55
2019-04-11T00:36:41.719Z,75.54
2019-04-11T00:39:13.410Z,75.64
2019-04-11T00:41:46.018Z,75.44
2019-04-11T00:44:17.542Z,75.85
2019-04-11T00:46:48.960Z,76.22
2019-04-11T00:49:24.191Z,76.23
2019-04-11T00:51:56.218Z,76.51
2019-04-11T00:54:28.909Z,76.48
2019-04-11T00:57:01.729Z,76.34
2019-04-11T00:59:34.149Z,76.26
2019-04-11T01:02:07.278Z,76.77
2019-04-11T01:04:39.141Z,77.27
2019-04-11T01:07:11.064Z,77.95
2019-04-11T01:09:42.776Z,78.61
2019-04-11T01:12:14.377Z,79.04
2019-04-11T01:14:46.833Z,79.45
2019-04-11T01:17:18.386Z,79.57
2019-04-11T01:19:51.063Z,79.65
2019-04-11T01:22:22.632Z,79.74
2019-04-11T01:24:54.033Z,80.01
2019-04-11T01:27:25.724Z,79.97
2019-04-11T01:29:57.840Z,80.57
2019-04-11T01:32:30.515Z,80.83
2019-04-11T01:35:02.049Z,81.17
2019-04-11T01:37:33.548Z,81.60
2019-04-11T01:40:07.670Z,82.11
2019-04-11T01:42:39.698Z,82.40
2019-04-11T01:45:11.740Z,82.27
2019-04-11T01:47:57.409Z,82.21
2019-04-11T01:50:30.314Z,82.68
2019-04-11T01:53:02.630Z,83.13
2019-04-11T01:55:34.753Z,83.39
2019-04-11T01:58:06.657Z,82.93
2019-04-11T02:00:56.908Z,83.18
2019-04-11T02:03:45.595Z,82.95
2019-04-11T02:06:18.021Z,83.31
2019-04-11T02:08:49.582Z,83.25
2019-04-11T02:11:21.350Z,83.00
2019-04-11T02:14:05.095Z,83.57
2019-04-11T02:16:25.831Z,83.87
2019-04-11T02:18:57.301Z,83.95
2019-04-11T02:21:29.567Z,83.75
2019-04-11T02:24:05.851Z,83.62
2019-04-11T02:26:38.901Z,83.51
2019-04-11T02:29:11.140Z,83.27
2019-04-11T02:31:44.400Z,83.30
2019-04-11T02:34:16.017Z,83.35
2019-04-11T02:36:47.132Z,83.38
2019-04-11T02:39:20.316Z,83.42
2019-04-11T02:41:52.755Z,83.62
2019-04-11T02:44:41.112Z,83.41
2019-04-11T02:47:07.480Z,83.38
2019-04-11T02:49:31.185Z,83.06
2019-04-11T02:52:03.406Z,83.10
2019-04-11T02:54:34.785Z,83.40
2019-04-11T02:57:07.919Z,83.47
2019-04-11T02:59:40.950Z,83.54
2019-04-11T03:02:16.431Z,83.49
2019-04-11T03:04:47.955Z,83.90
2019-04-11T03:07:18.386Z,83.70
2019-04-11T03:09:51.052Z,83.57
2019-04-11T03:12:24.016Z,83.50
2019-04-11T03:15:12.639Z,83.60
2019-04-11T03:17:34.137Z,83.30
2019-04-11T03:20:13.160Z,83.13
2019-04-11T03:22:34.957Z,83.12
2019-04-11T03:25:08.471Z,83.06
2019-04-11T03:27:40.943Z,82.90
2019-04-11T03:30:19.322Z,82.83
2019-04-11T03:33:43.359Z,82.83
2019-04-11T03:36:07.595Z,82.97
2019-04-11T03:38:15.622Z,83.13
2019-04-11T03:40:48.257Z,82.95
2019-04-11T03:43:09.304Z,83.16
2019-04-11T03:45:47.914Z,83.01
2019-04-11T03:48:20.435Z,82.99
2019-04-11T03:50:39.403Z,82.87
2019-04-11T03:53:12.204Z,82.57
2019-04-11T03:55:45.395Z,82.29
2019-04-11T03:58:17.515Z,82.66
2019-04-11T04:00:52.862Z,82.56
2019-04-11T04:03:24.571Z,82.21
2019-04-11T04:05:57.980Z,82.06
2019-04-11T04:08:31.495Z,81.91
2019-04-11T04:11:14.948Z,81.66
2019-04-11T04:14:04.416Z,81.11
2019-04-11T04:16:56.495Z,80.71
2019-04-11T04:19:31.051Z,81.21
2019-04-11T04:22:05.136Z,81.14
2019-04-11T04:24:40.511Z,80.78
2019-04-11T04:27:10.963Z,81.15
2019-04-11T04:29:46.663Z,80.30
2019-04-11T04:32:16.321Z,80.20
2019-04-11T04:34:49.063Z,80.04
2019-04-11T04:37:23.589Z,78.94
2019-04-11T04:40:16.272Z,79.11
2019-04-11T04:42:32.219Z,78.95
2019-04-11T04:44:59.733Z,79.09
2019-04-11T04:47:39.648Z,78.72
2019-04-11T04:50:06.633Z,78.87
2019-04-11T04:52:38.137Z,78.92
2019-04-11T04:55:10.653Z,79.30
2019-04-11T04:57:42.974Z,79.99
2019-04-11T05:00:15.244Z,79.81
2019-04-11T05:02:48.016Z,79.72
2019-04-11T05:05:19.752Z,80.54
2019-04-11T05:07:51.949Z,81.16
2019-04-11T05:10:26.381Z,81.00
2019-04-11T05:12:59.220Z,81.26
2019-04-11T05:15:32.348Z,81.34
2019-04-11T05:18:04.268Z,81.23
2019-04-11T05:20:36.367Z,80.59
2019-04-11T05:23:08.459Z,80.86
2019-04-11T05:25:39.894Z,81.37
2019-04-11T05:28:12.039Z,81.54
2019-04-11T05:30:44.917Z,81.87
2019-04-11T05:33:16.503Z,80.17
2019-04-11T05:35:49.978Z,80.17
2019-04-11T05:38:21.743Z,79.29
2019-04-11T05:40:53.068Z,79.51
2019-04-11T05:43:29.289Z,79.08
2019-04-11T05:45:58.324Z,79.73
2019-04-11T05:48:45.225Z,80.11
2019-04-11T05:51:21.330Z,79.95
2019-04-11T05:53:52.629Z,78.83
2019-04-11T05:56:25.626Z,79.71
2019-04-11T05:58:59.887Z,78.95
2019-04-11T06:01:34.069Z,78.49
2019-04-11T06:04:13.140Z,78.89
2019-04-11T06:06:44.754Z,79.08
2019-04-11T06:09:30.382Z,79.11
2019-04-11T06:12:05.259Z,78.84
2019-04-11T06:14:39.616Z,79.48
2019-04-11T06:17:14.286Z,78.14
2019-04-11T06:19:50.783Z,77.84
2019-04-11T06:22:23.420Z,78.09
2019-04-11T06:24:56.786Z,77.88
2019-04-11T06:27:36.158Z,78.51
2019-04-11T06:30:16.560Z,78.50
2019-04-11T06:32:49.703Z,79.05
2019-04-11T06:35:26.132Z,78.09
2019-04-11T06:38:06.044Z,78.12
2019-04-11T06:40:57.819Z,78.69
2019-04-11T06:43:32.058Z,77.24
2019-04-11T06:46:09.093Z,76.75
2019-04-11T06:49:00.184Z,76.29
2019-04-11T06:51:39.947Z,76.15
2019-04-11T06:54:25.309Z,75.37
2019-04-11T06:56:57.288Z,74.95
2019-04-11T06:59:30.484Z,75.36
2019-04-11T07:02:11.511Z,75.14
2019-04-11T07:04:44.135Z,75.58
2019-04-11T07:07:16.419Z,76.15
2019-04-11T07:09:53.473Z,75.32
2019-04-11T07:12:32.980Z,74.52
2019-04-11T07:15:08.638Z,73.51
2019-04-11T07:17:58.871Z,72.18
2019-04-11T07:20:44.110Z,72.84
2019-04-11T07:23:33.528Z,73.70
2019-04-11T07:26:07.944Z,71.70
2019-04-11T07:28:41.745Z,72.59
2019-04-11T07:31:21.712Z,71.64
2019-04-11T07:33:56.187Z,69.82
2019-04-11T07:36:38.530Z,70.18
2019-04-11T07:39:12.914Z,70.67
2019-04-11T07:41:47.918Z,71.29
2019-04-11T07:44:21.851Z,70.84
2019-04-11T07:46:55.913Z,70.56
2019-04-11T07:49:35.061Z,70.30
2019-04-11T07:52:11.093Z,71.23
2019-04-11T07:54:43.370Z,71.03
2019-04-11T07:57:23.025Z,69.38
2019-04-11T07:59:59.952Z,70.06
2019-04-11T08:02:33.398Z,71.00
2019-04-11T08:05:17.669Z,69.55
2019-04-11T08:08:06.839Z,67.71
2019-04-11T08:10:41.445Z,67.42
2019-04-11T08:13:20.813Z,67.58
2019-04-11T08:16:10.577Z,66.90
2019-04-11T08:18:59.305Z,67.14
2019-04-11T08:21:38.921Z,67.54
2019-04-11T08:24:18.503Z,67.56
2019-04-11T08:27:09.544Z,67.36
2019-04-11T08:29:42.154Z,67.11
2019-04-11T08:32:31.728Z,67.57
2019-04-11T08:35:21.188Z,66.17
2019-04-11T08:38:02.971Z,66.36
2019-04-11T08:40:53.355Z,65.26
2019-04-11T08:43:29.262Z,65.59
2019-04-11T08:46:05.048Z,65.48
2019-04-11T08:48:39.274Z,64.39
2019-04-11T08:51:16.885Z,64.65
2019-04-11T08:54:01.469Z,63.31
2019-04-11T08:56:33.020Z,61.88
2019-04-11T08:59:11.892Z,63.25
2019-04-11T09:01:46.006Z,62.55
2019-04-11T09:04:36.926Z,62.71
2019-04-11T09:07:10.212Z,62.09
2019-04-11T09:09:45.746Z,62.88
2019-04-11T09:12:20.863Z,61.92
2019-04-11T09:15:06.492Z,59.78
2019-04-11T09:17:48.375Z,60.54
2019-04-11T09:20:24.313Z,61.20
2019-04-11T09:23:01.728Z,61.12
2019-04-11T09:25:55.402Z,61.45
2019-04-11T09:28:29.239Z,62.34
2019-04-11T09:31:09.322Z,61.76
2019-04-11T09:33:57.747Z,61.48
2019-04-11T09:36:38.796Z,61.68
2019-04-11T09:39:19.158Z,60.78
2019-04-11T09:42:16.830Z,60.28
2019-04-11T09:44:53.199Z,60.35
2019-04-11T09:47:33.681Z,60.14
2019-04-11T09:50:24.597Z,59.37
2019-04-11T09:52:59.910Z,59.33
2019-04-11T09:55:41.993Z,59.77
2019-04-11T09:58:27.484Z,59.36
2019-04-11T10:01:20.314Z,58.52
2019-04-11T10:03:52.916Z,58.43
2019-04-11T10:06:32.389Z,57.99
2019-04-11T10:09:07.935Z,58.72
2019-04-11T10:11:48.497Z,58.46
2019-04-11T10:14:21.619Z,57.68
2019-04-11T10:17:11.234Z,58.06
2019-04-11T10:19:46.297Z,58.00
2019-04-11T10:22:34.094Z,57.82
2019-04-11T10:25:14.879Z,56.66
2019-04-11T10:28:05.966Z,56.35
2019-04-11T10:30:44.147Z,56.12
2019-04-11T10:33:29.366Z,56.33
2019-04-11T10:36:14.699Z,56.42
2019-04-11T10:38:46.805Z,56.06
2019-04-11T10:41:28.663Z,56.17
2019-04-11T10:44:01.322Z,56.43
2019-04-11T10:46:47.355Z,56.19
2019-04-11T10:49:24.826Z,55.83
2019-04-11T10:52:00.587Z,54.78
2019-04-11T10:54:33.744Z,54.92
2019-04-11T10:57:21.468Z,54.59
2019-04-11T10:59:54.607Z,54.46
2019-04-11T11:02:33.740Z,53.74
2019-04-11T11:05:07.375Z,55.14
2019-04-11T11:07:44.707Z,54.88
2019-04-11T11:10:17.953Z,55.25
2019-04-11T11:13:07.826Z,54.26
2019-04-11T11:15:41.922Z,54.15
2019-04-11T11:18:48.167Z,54.36
2019-04-11T11:21:03.623Z,54.33
2019-04-11T11:23:40.907Z,55.01
2019-04-11T11:26:22.857Z,55.69
2019-04-11T11:29:15.224Z,55.67
2019-04-11T11:31:47.991Z,55.41
2019-04-11T11:34:23.665Z,55.33
2019-04-11T11:37:14.593Z,55.14
2019-04-11T11:40:13.197Z,55.16
2019-04-11T11:42:44.074Z,55.84
2019-04-11T11:45:23.889Z,55.40
2019-04-11T11:48:03.431Z,55.41
2019-04-11T11:50:36.032Z,54.97
2019-04-11T11:53:22.632Z,54.87
2019-04-11T11:55:55.724Z,54.50
2019-04-11T11:58:29.931Z,53.88
2019-04-11T12:01:05.832Z,53.76
2019-04-11T12:03:44.518Z,54.03
2019-04-11T12:06:22.309Z,53.94
2019-04-11T12:09:00.353Z,53.83
2019-04-11T12:11:35.404Z,54.03
2019-04-11T12:14:25.526Z,54.47
2019-04-11T12:17:06.413Z,54.28
2019-04-11T12:20:05.376Z,53.66
2019-04-11T12:22:53.605Z,53.04
2019-04-11T12:25:29.286Z,52.25
2019-04-11T12:28:05.395Z,52.10
2019-04-11T12:30:44.957Z,51.72
2019-04-11T12:33:35.355Z,51.51
2019-04-11T12:36:11.416Z,52.20
2019-04-11T12:38:57.426Z,52.27
2019-04-11T12:41:39.544Z,51.51
2019-04-11T12:44:16.228Z,51.00
2019-04-11T12:46:55.364Z,51.01
2019-04-11T12:49:28.661Z,51.50
2019-04-11T12:52:18.172Z,51.33
2019-04-11T12:54:57.623Z,50.47
2019-04-11T12:57:47.264Z,49.24
2019-04-11T13:00:20.570Z,48.98
2019-04-11T13:03:02.617Z,48.89
2019-04-11T13:05:35.709Z,49.09
2019-04-11T13:08:20.962Z,50.34
2019-04-11T13:10:52.551Z,50.05
2019-04-11T13:13:31.313Z,49.90
2019-04-11T13:16:11.902Z,50.12
2019-04-11T13:18:55.429Z,50.00
2019-04-11T13:21:46.650Z,49.00
2019-04-11T13:24:25.760Z,49.76
2019-04-11T13:27:01.802Z,50.48
2019-04-11T13:29:44.066Z,50.42
2019-04-11T13:32:30.953Z,50.25
2019-04-11T13:35:05.278Z,50.72
2019-04-11T13:37:58.693Z,51.50
2019-04-11T13:40:31.751Z,51.76
2019-04-11T13:43:21.422Z,51.96
2019-04-11T13:46:03.382Z,51.82
2019-04-11T13:48:48.472Z,52.54
2019-04-11T13:51:30.972Z,52.78
2019-04-11T13:54:20.271Z,52.85
2019-04-11T13:57:12.778Z,52.57
2019-04-11T14:00:02.234Z,52.50
2019-04-11T14:02:36.994Z,52.76
2019-04-11T14:05:10.866Z,52.62
2019-04-11T14:07:44.627Z,52.73
2019-04-11T14:10:17.548Z,52.94
2019-04-11T14:12:48.906Z,52.74
2019-04-11T14:15:21.733Z,52.81
2019-04-11T14:18:17.447Z,53.16
2019-04-11T14:20:53.443Z,53.21
2019-04-11T14:23:26.740Z,52.46
2019-04-11T14:25:59.177Z,52.44
2019-04-11T14:28:31.907Z,52.50
2019-04-11T14:31:23.032Z,52.11
2019-04-11T14:33:59.158Z,51.89
2019-04-11T14:36:48.498Z,52.01
2019-04-11T14:39:37.413Z,51.54
2019-04-11T14:42:12.055Z,51.70
2019-04-11T14:44:44.948Z,51.96
2019-04-11T14:47:24.046Z,52.21
2019-04-11T14:50:03.183Z,52.21
2019-04-11T14:52:39.101Z,52.55
2019-04-11T14:55:10.869Z,51.90
2019-04-11T14:57:53.565Z,51.80
2019-04-11T15:00:33.923Z,51.99
2019-04-11T15:03:13.139Z,51.62
2019-04-11T15:05:46.088Z,51.87
2019-04-11T15:08:19.200Z,51.60
2019-04-11T15:10:58.179Z,50.63
2019-04-11T15:13:31.140Z,49.97
2019-04-11T15:16:07.604Z,50.11
2019-04-11T15:18:40.890Z,50.09
2019-04-11T15:21:19.840Z,50.65
2019-04-11T15:23:51.546Z,50.78
2019-04-11T15:26:24.747Z,50.63
2019-04-11T15:29:00.675Z,50.79
2019-04-11T15:31:39.116Z,50.60
2019-04-11T15:34:20.497Z,50.46
2019-04-11T15:36:59.400Z,49.28
2019-04-11T15:39:48.645Z,49.39
2019-04-11T15:42:24.736Z,48.63
2019-04-11T15:45:14.140Z,48.92
2019-04-11T15:47:50.580Z,49.00
2019-04-11T15:50:30.694Z,49.30
2019-04-11T15:53:06.590Z,49.67
2019-04-11T15:55:52.548Z,49.51
2019-04-11T15:58:25.220Z,49.87
2019-04-11T16:00:57.970Z,50.27
2019-04-11T16:03:29.260Z,50.54
2019-04-11T16:06:05.334Z,50.79
2019-04-11T16:08:39.460Z,50.93
2019-04-11T16:11:15.088Z,51.08
2019-04-11T16:13:48.290Z,51.33
2019-04-11T16:16:21.395Z,52.13
2019-04-11T16:19:10.860Z,52.46
2019-04-11T16:21:56.145Z,52.94
2019-04-11T16:24:29.337Z,53.07
2019-04-11T16:27:02.397Z,53.51
2019-04-11T16:29:39.448Z,53.77
2019-04-11T16:32:15.360Z,53.97
2019-04-11T16:35:04.856Z,53.98
2019-04-11T16:37:36.726Z,54.29
2019-04-11T16:40:09.897Z,54.46
2019-04-11T16:42:43.241Z,54.57
2019-04-11T16:45:16.709Z,54.49
2019-04-11T16:48:02.589Z,54.93
2019-04-11T16:50:34.248Z,55.08
2019-04-11T16:53:10.533Z,55.05
2019-04-11T16:55:43.443Z,55.08
2019-04-11T16:58:19.338Z,55.37
2019-04-11T17:00:52.136Z,55.30
2019-04-11T17:03:24.858Z,55.73
2019-04-11T17:05:56.428Z,56.28
2019-04-11T17:08:30.182Z,56.46
2019-04-11T17:11:15.146Z,56.50
2019-04-11T17:13:46.978Z,56.49
2019-04-11T17:16:18.497Z,56.64
2019-04-11T17:18:49.900Z,56.60
2019-04-11T17:21:23.182Z,56.72
2019-04-11T17:23:55.658Z,57.00
2019-04-11T17:26:27.185Z,57.24
2019-04-11T17:28:58.434Z,57.24
2019-04-11T17:31:29.919Z,57.32
2019-04-11T17:34:02.409Z,57.25
2019-04-11T17:36:34.257Z,57.22
2019-04-11T17:39:07.713Z,57.23
2019-04-11T17:41:42.052Z,57.24
2019-04-11T17:44:13.403Z,57.50
2019-04-11T17:46:45.105Z,57.37
2019-04-11T17:49:16.738Z,56.97
2019-04-11T17:51:55.687Z,57.07
2019-04-11T17:54:24.730Z,57.40
2019-04-11T17:56:56.335Z,57.55
2019-04-11T17:59:28.805Z,57.69
2019-04-11T18:02:00.720Z,57.49
2019-04-11T18:04:33.375Z,57.63
2019-04-11T18:07:04.783Z,57.65
2019-04-11T18:09:36.211Z,57.67
2019-04-11T18:12:07.793Z,57.66
2019-04-11T18:14:40.204Z,57.85
2019-04-11T18:17:11.966Z,58.07
2019-04-11T18:19:43.644Z,57.89
2019-04-11T18:22:15.428Z,58.03
2019-04-11T18:24:49.896Z,58.45
2019-04-11T18:27:21.860Z,58.84
2019-04-11T18:29:55.694Z,59.17
2019-04-11T18:32:27.260Z,59.32
2019-04-11T18:35:01.774Z,60.04
2019-04-11T18:37:32.752Z,59.61
2019-04-11T18:40:10.188Z,59.78
2019-04-11T18:42:40.182Z,59.92
2019-04-11T18:45:11.871Z,60.09
2019-04-11T18:47:43.600Z,61.58
2019-04-11T18:50:15.761Z,61.55
2019-04-11T18:52:47.280Z,61.49
2019-04-11T18:55:18.892Z,61.37
2019-04-11T18:57:54.091Z,61.14
2019-04-11T19:00:29.794Z,61.48
2019-04-11T19:03:01.392Z,61.62
2019-04-11T19:05:32.964Z,61.82
2019-04-11T19:08:04.714Z,62.31
2019-04-11T19:10:36.202Z,62.64
2019-04-11T19:13:07.793Z,63.00
2019-04-11T19:15:39.335Z,63.11
2019-04-11T19:18:10.929Z,63.38
2019-04-11T19:20:42.648Z,63.58
2019-04-11T19:23:14.231Z,63.70
2019-04-11T19:25:45.485Z,63.64
2019-04-11T19:28:17.119Z,63.74
2019-04-11T19:30:48.633Z,64.27
2019-04-11T19:33:20.444Z,64.75
2019-04-11T19:35:51.994Z,64.87
2019-04-11T19:38:31.015Z,65.01
2019-04-11T19:41:02.431Z,65.04
2019-04-11T19:43:34.087Z,65.27
2019-04-11T19:46:05.546Z,65.36
2019-04-11T19:48:37.203Z,65.47
2019-04-11T19:51:10.851Z,65.63
2019-04-11T19:53:41.449Z,65.53
2019-04-11T19:56:14.170Z,65.82
2019-04-11T19:58:45.558Z,65.83
2019-04-11T20:01:16.985Z,65.90
2019-04-11T20:03:48.552Z,66.08
2019-04-11T20:06:19.950Z,66.23
2019-04-11T20:08:51.311Z,66.26
2019-04-11T20:11:22.763Z,66.33
2019-04-11T20:13:54.092Z,66.40
2019-04-11T20:16:25.715Z,66.46
2019-04-11T20:18:58.040Z,66.72
2019-04-11T20:21:30.477Z,66.80
2019-04-11T20:24:02.159Z,67.00
2019-04-11T20:26:33.823Z,67.53
2019-04-11T20:29:05.420Z,67.98
2019-04-11T20:31:37.106Z,67.92
2019-04-11T20:34:08.704Z,67.87
2019-04-11T20:36:41.239Z,67.77
2019-04-11T20:39:15.218Z,67.91
2019-04-11T20:41:46.656Z,68.00
2019-04-11T20:44:18.201Z,68.15
2019-04-11T20:46:49.626Z,68.60
2019-04-11T20:49:21.158Z,69.00
2019-04-11T20:51:52.526Z,69.28
2019-04-11T20:54:23.929Z,69.53
2019-04-11T20:56:55.527Z,69.84
2019-04-11T20:59:34.318Z,69.76
2019-04-11T21:02:00.180Z,70.10
2019-04-11T21:04:31.924Z,69.86
2019-04-11T21:07:03.286Z,69.98
2019-04-11T21:09:34.808Z,70.09
2019-04-11T21:12:07.429Z,70.34
2019-04-11T21:14:39.553Z,70.30
2019-04-11T21:17:11.002Z,70.44
2019-04-11T21:19:42.582Z,70.44
2019-04-11T21:22:13.931Z,70.56
2019-04-11T21:24:45.562Z,70.57
2019-04-11T21:27:16.924Z,70.46
2019-04-11T21:29:48.359Z,70.20
2019-04-11T21:32:19.834Z,70.35
2019-04-11T21:35:02.370Z,70.27
2019-04-11T21:37:36.722Z,70.40
2019-04-11T21:40:07.144Z,70.77
2019-04-11T21:42:38.295Z,70.61
2019-04-11T21:45:10.017Z,70.38
2019-04-11T21:47:41.671Z,70.30
2019-04-11T21:50:13.329Z,70.62
2019-04-11T21:52:44.821Z,70.74
2019-04-11T21:55:16.445Z,70.68
2019-04-11T21:57:48.879Z,70.62
2019-04-11T22:00:24.994Z,70.83
2019-04-11T22:02:58.096Z,71.15
2019-04-11T22:05:29.869Z,71.01
2019-04-11T22:08:03.688Z,70.75
2019-04-11T22:10:34.595Z,70.85
2019-04-11T22:13:09.826Z,71.24
2019-04-11T22:15:42.030Z,71.07
2019-04-11T22:18:15.875Z,71.18
2019-04-11T22:20:45.934Z,71.38
2019-04-11T22:23:17.399Z,71.13
2019-04-11T22:25:49.039Z,71.42
2019-04-11T22:28:22.004Z,71.75
2019-04-11T22:30:55.086Z,72.43
2019-04-11T22:33:44.989Z,72.65
2019-04-11T22:36:16.540Z,73.26
2019-04-11T22:38:48.146Z,73.89
2019-04-11T22:41:19.887Z,73.62
2019-04-11T22:43:51.438Z,73.19
2019-04-11T22:46:23.247Z,73.17
2019-04-11T22:48:54.602Z,73.04
2019-04-11T22:51:26.170Z,73.50
2019-04-11T22:54:00.481Z,73.26
2019-04-11T22:56:30.884Z,73.29
2019-04-11T22:59:02.387Z,73.06
2019-04-11T23:01:34.271Z,72.70
2019-04-11T23:04:05.921Z,72.44
2019-04-11T23:06:37.550Z,72.60
2019-04-11T23:09:09.099Z,73.07
2019-04-11T23:11:44.525Z,72.89
2019-04-11T23:14:15.957Z,72.27
2019-04-11T23:16:48.011Z,72.46
2019-04-11T23:19:19.446Z,72.49
2019-04-11T23:21:51.017Z,72.36
2019-04-11T23:24:22.388Z,72.18
2019-04-11T23:26:53.785Z,72.25
2019-04-11T23:29:25.303Z,71.96
2019-04-11T23:31:56.656Z,72.24
2019-04-11T23:34:28.041Z,72.55
2019-04-11T23:36:59.529Z,73.27
2019-04-11T23:39:30.944Z,73.46
2019-04-11T23:42:02.558Z,73.54
2019-04-11T23:44:33.947Z,73.22
2019-04-11T23:47:05.423Z,72.64
2019-04-11T23:49:37.943Z,73.01
2019-04-11T23:52:09.600Z,72.80
2019-04-11T23:54:40.966Z,72.87
2019-04-11T23:57:12.637Z,73.11
2019-04-11T23:59:44.131Z,72.28
